sensor_id;sensor_type;location;lat;lon;timestamp;P1;durP1;ratioP1;P2;durP2;ratioP2
5040;SDS011;2539;52.568;13.364;2022-09-09T00:04:40;12.43;;;11.20;;
5040;SDS011;2539;52.568;13.364;2022-09-09T00:09:29;13.13;;;11.30;;
5040;SDS011;2539;52.568;13.364;2022-09-09T00:12:02;13.70;;;12.40;;
5040;SDS011;2539;52.568;13.364;2022-09-09T00:17:08;14.03;;;12.47;;
5040;SDS011;2539;52.568;13.364;2022-09-09T00:19:41;14.40;;;13.10;;
5040;SDS011;2539;52.568;13.364;2022-09-09T00:22:17;13.43;;;12.10;;
5040;SDS011;2539;52.568;13.364;2022-09-09T00:24:52;14.33;;;13.03;;
5040;SDS011;2539;52.568;13.364;2022-09-09T00:27:29;14.50;;;13.20;;
5040;SDS011;2539;52.568;13.364;2022-09-09T00:32:30;13.50;;;12.27;;
5040;SDS011;2539;52.568;13.364;2022-09-09T00:35:13;13.70;;;12.30;;
5040;SDS011;2539;52.568;13.364;2022-09-09T00:37:41;11.87;;;10.67;;
5040;SDS011;2539;52.568;13.364;2022-09-09T00:40:21;13.10;;;11.90;;
5040;SDS011;2539;52.568;13.364;2022-09-09T00:42:47;13.37;;;12.07;;
5040;SDS011;2539;52.568;13.364;2022-09-09T00:48:06;12.97;;;11.57;;
5040;SDS011;2539;52.568;13.364;2022-09-09T00:56:20;13.50;;;12.30;;
5040;SDS011;2539;52.568;13.364;2022-09-09T00:58:56;16.00;;;12.20;;
5040;SDS011;2539;52.568;13.364;2022-09-09T01:01:46;12.90;;;11.60;;
5040;SDS011;2539;52.568;13.364;2022-09-09T01:04:13;14.53;;;12.90;;
5040;SDS011;2539;52.568;13.364;2022-09-09T01:06:47;13.10;;;12.00;;
5040;SDS011;2539;52.568;13.364;2022-09-09T01:09:22;12.80;;;11.60;;
5040;SDS011;2539;52.568;13.364;2022-09-09T01:12:15;13.27;;;11.87;;
5040;SDS011;2539;52.568;13.364;2022-09-09T01:19:59;13.50;;;12.40;;
5040;SDS011;2539;52.568;13.364;2022-09-09T01:28:34;13.27;;;11.90;;
5040;SDS011;2539;52.568;13.364;2022-09-09T01:31:05;13.67;;;12.23;;
5040;SDS011;2539;52.568;13.364;2022-09-09T01:33:32;13.50;;;12.30;;
5040;SDS011;2539;52.568;13.364;2022-09-09T01:36:06;12.93;;;11.60;;
5040;SDS011;2539;52.568;13.364;2022-09-09T01:38:37;14.40;;;13.00;;
5040;SDS011;2539;52.568;13.364;2022-09-09T01:41:04;14.17;;;12.87;;
5040;SDS011;2539;52.568;13.364;2022-09-09T01:43:30;17.10;;;13.33;;
5040;SDS011;2539;52.568;13.364;2022-09-09T01:45:59;13.13;;;11.83;;
5040;SDS011;2539;52.568;13.364;2022-09-09T01:48:27;13.17;;;11.93;;
5040;SDS011;2539;52.568;13.364;2022-09-09T01:50:55;12.50;;;11.40;;
5040;SDS011;2539;52.568;13.364;2022-09-09T01:53:21;12.87;;;11.60;;
5040;SDS011;2539;52.568;13.364;2022-09-09T02:04:01;13.63;;;12.40;;
5040;SDS011;2539;52.568;13.364;2022-09-09T02:06:35;13.80;;;11.90;;
5040;SDS011;2539;52.568;13.364;2022-09-09T02:09:04;13.83;;;12.43;;
5040;SDS011;2539;52.568;13.364;2022-09-09T02:11:33;13.40;;;12.20;;
5040;SDS011;2539;52.568;13.364;2022-09-09T02:14:01;14.30;;;12.97;;
5040;SDS011;2539;52.568;13.364;2022-09-09T02:16:42;14.17;;;12.50;;
5040;SDS011;2539;52.568;13.364;2022-09-09T02:19:23;12.30;;;11.27;;
5040;SDS011;2539;52.568;13.364;2022-09-09T02:22:26;15.73;;;12.20;;
5040;SDS011;2539;52.568;13.364;2022-09-09T02:24:55;12.67;;;11.57;;
5040;SDS011;2539;52.568;13.364;2022-09-09T02:27:24;13.80;;;12.50;;
5040;SDS011;2539;52.568;13.364;2022-09-09T02:29:50;14.07;;;12.67;;
5040;SDS011;2539;52.568;13.364;2022-09-09T02:32:20;14.10;;;12.70;;
5040;SDS011;2539;52.568;13.364;2022-09-09T02:34:51;13.90;;;12.50;;
5040;SDS011;2539;52.568;13.364;2022-09-09T02:37:23;15.17;;;12.37;;
5040;SDS011;2539;52.568;13.364;2022-09-09T02:39:54;13.67;;;12.37;;
5040;SDS011;2539;52.568;13.364;2022-09-09T02:42:21;12.03;;;10.93;;
5040;SDS011;2539;52.568;13.364;2022-09-09T02:44:48;13.20;;;11.90;;
5040;SDS011;2539;52.568;13.364;2022-09-09T02:50:20;12.80;;;11.50;;
5040;SDS011;2539;52.568;13.364;2022-09-09T02:55:39;13.53;;;11.33;;
5040;SDS011;2539;52.568;13.364;2022-09-09T02:58:13;12.20;;;11.00;;
5040;SDS011;2539;52.568;13.364;2022-09-09T03:00:45;12.30;;;11.13;;
5040;SDS011;2539;52.568;13.364;2022-09-09T03:03:13;12.83;;;11.63;;
5040;SDS011;2539;52.568;13.364;2022-09-09T03:05:42;12.77;;;11.47;;
5040;SDS011;2539;52.568;13.364;2022-09-09T03:08:10;13.63;;;12.43;;
5040;SDS011;2539;52.568;13.364;2022-09-09T03:10:38;14.30;;;12.93;;
5040;SDS011;2539;52.568;13.364;2022-09-09T03:13:05;14.40;;;13.00;;
5040;SDS011;2539;52.568;13.364;2022-09-09T03:15:32;13.47;;;12.07;;
5040;SDS011;2539;52.568;13.364;2022-09-09T03:17:59;14.03;;;12.63;;
5040;SDS011;2539;52.568;13.364;2022-09-09T03:20:26;13.70;;;12.40;;
5040;SDS011;2539;52.568;13.364;2022-09-09T03:22:54;12.30;;;11.20;;
5040;SDS011;2539;52.568;13.364;2022-09-09T03:25:21;13.17;;;11.77;;
5040;SDS011;2539;52.568;13.364;2022-09-09T03:27:52;12.00;;;10.90;;
5040;SDS011;2539;52.568;13.364;2022-09-09T03:30:21;12.93;;;11.60;;
5040;SDS011;2539;52.568;13.364;2022-09-09T03:32:48;13.03;;;11.73;;
5040;SDS011;2539;52.568;13.364;2022-09-09T03:35:14;12.50;;;11.20;;
5040;SDS011;2539;52.568;13.364;2022-09-09T03:37:41;12.77;;;11.50;;
5040;SDS011;2539;52.568;13.364;2022-09-09T03:40:08;12.77;;;11.57;;
5040;SDS011;2539;52.568;13.364;2022-09-09T03:42:36;13.07;;;11.37;;
5040;SDS011;2539;52.568;13.364;2022-09-09T03:45:06;12.90;;;11.40;;
5040;SDS011;2539;52.568;13.364;2022-09-09T03:47:34;12.70;;;11.27;;
5040;SDS011;2539;52.568;13.364;2022-09-09T03:50:01;13.23;;;12.03;;
5040;SDS011;2539;52.568;13.364;2022-09-09T03:52:27;13.50;;;12.20;;
5040;SDS011;2539;52.568;13.364;2022-09-09T03:54:53;11.80;;;10.60;;
5040;SDS011;2539;52.568;13.364;2022-09-09T03:57:21;15.33;;;11.40;;
5040;SDS011;2539;52.568;13.364;2022-09-09T03:59:47;12.70;;;11.50;;
5040;SDS011;2539;52.568;13.364;2022-09-09T04:02:13;13.87;;;12.60;;
5040;SDS011;2539;52.568;13.364;2022-09-09T04:04:39;13.47;;;11.70;;
5040;SDS011;2539;52.568;13.364;2022-09-09T04:07:06;13.10;;;11.80;;
5040;SDS011;2539;52.568;13.364;2022-09-09T04:09:33;12.57;;;11.33;;
5040;SDS011;2539;52.568;13.364;2022-09-09T04:12:00;14.57;;;11.57;;
5040;SDS011;2539;52.568;13.364;2022-09-09T04:14:27;13.00;;;11.70;;
5040;SDS011;2539;52.568;13.364;2022-09-09T04:16:54;14.10;;;12.60;;
5040;SDS011;2539;52.568;13.364;2022-09-09T04:19:21;13.17;;;12.03;;
5040;SDS011;2539;52.568;13.364;2022-09-09T04:21:48;13.83;;;12.40;;
5040;SDS011;2539;52.568;13.364;2022-09-09T04:24:17;14.20;;;12.83;;
5040;SDS011;2539;52.568;13.364;2022-09-09T04:26:44;15.10;;;13.00;;
5040;SDS011;2539;52.568;13.364;2022-09-09T04:29:11;14.70;;;13.33;;
5040;SDS011;2539;52.568;13.364;2022-09-09T04:31:37;15.70;;;13.10;;
5040;SDS011;2539;52.568;13.364;2022-09-09T04:34:08;17.37;;;14.00;;
5040;SDS011;2539;52.568;13.364;2022-09-09T04:36:35;15.63;;;13.80;;
5040;SDS011;2539;52.568;13.364;2022-09-09T04:39:02;14.57;;;13.17;;
5040;SDS011;2539;52.568;13.364;2022-09-09T04:41:28;15.23;;;13.83;;
5040;SDS011;2539;52.568;13.364;2022-09-09T04:43:55;15.30;;;13.80;;
5040;SDS011;2539;52.568;13.364;2022-09-09T04:46:22;15.00;;;13.43;;
5040;SDS011;2539;52.568;13.364;2022-09-09T04:48:49;13.27;;;12.17;;
5040;SDS011;2539;52.568;13.364;2022-09-09T04:51:16;13.30;;;12.10;;
5040;SDS011;2539;52.568;13.364;2022-09-09T04:53:43;13.03;;;11.73;;
5040;SDS011;2539;52.568;13.364;2022-09-09T04:56:10;13.60;;;11.50;;
5040;SDS011;2539;52.568;13.364;2022-09-09T04:58:38;13.27;;;11.97;;
5040;SDS011;2539;52.568;13.364;2022-09-09T05:01:09;12.73;;;11.63;;
5040;SDS011;2539;52.568;13.364;2022-09-09T05:03:40;13.73;;;11.90;;
5040;SDS011;2539;52.568;13.364;2022-09-09T05:06:09;12.13;;;11.00;;
5040;SDS011;2539;52.568;13.364;2022-09-09T05:08:37;15.23;;;10.87;;
5040;SDS011;2539;52.568;13.364;2022-09-09T05:11:13;14.63;;;10.90;;
5040;SDS011;2539;52.568;13.364;2022-09-09T05:13:44;10.40;;;9.50;;
5040;SDS011;2539;52.568;13.364;2022-09-09T05:16:11;11.13;;;9.70;;
5040;SDS011;2539;52.568;13.364;2022-09-09T05:18:39;11.03;;;10.00;;
5040;SDS011;2539;52.568;13.364;2022-09-09T05:21:06;9.73;;;8.83;;
5040;SDS011;2539;52.568;13.364;2022-09-09T05:23:33;9.00;;;8.10;;
5040;SDS011;2539;52.568;13.364;2022-09-09T05:26:00;12.40;;;9.10;;
5040;SDS011;2539;52.568;13.364;2022-09-09T05:28:26;10.80;;;9.43;;
5040;SDS011;2539;52.568;13.364;2022-09-09T05:31:03;9.63;;;8.47;;
5040;SDS011;2539;52.568;13.364;2022-09-09T05:33:34;9.47;;;8.20;;
5040;SDS011;2539;52.568;13.364;2022-09-09T05:38:28;8.50;;;7.60;;
5040;SDS011;2539;52.568;13.364;2022-09-09T05:40:56;11.77;;;6.80;;
5040;SDS011;2539;52.568;13.364;2022-09-09T05:43:23;7.90;;;7.10;;
5040;SDS011;2539;52.568;13.364;2022-09-09T05:46:00;8.07;;;7.37;;
5040;SDS011;2539;52.568;13.364;2022-09-09T05:48:35;10.03;;;6.53;;
5040;SDS011;2539;52.568;13.364;2022-09-09T05:51:03;8.87;;;7.17;;
5040;SDS011;2539;52.568;13.364;2022-09-09T05:53:30;11.03;;;7.40;;
5040;SDS011;2539;52.568;13.364;2022-09-09T05:55:58;11.63;;;6.93;;
5040;SDS011;2539;52.568;13.364;2022-09-09T05:58:30;12.37;;;6.20;;
5040;SDS011;2539;52.568;13.364;2022-09-09T06:01:04;7.73;;;6.33;;
5040;SDS011;2539;52.568;13.364;2022-09-09T06:03:36;7.83;;;7.07;;
5040;SDS011;2539;52.568;13.364;2022-09-09T06:06:05;7.07;;;6.30;;
5040;SDS011;2539;52.568;13.364;2022-09-09T06:08:33;10.13;;;6.70;;
5040;SDS011;2539;52.568;13.364;2022-09-09T06:11:03;8.43;;;7.00;;
5040;SDS011;2539;52.568;13.364;2022-09-09T06:13:30;7.50;;;6.60;;
5040;SDS011;2539;52.568;13.364;2022-09-09T06:15:56;14.70;;;7.10;;
5040;SDS011;2539;52.568;13.364;2022-09-09T06:18:24;8.17;;;7.23;;
5040;SDS011;2539;52.568;13.364;2022-09-09T06:20:58;7.47;;;6.10;;
5040;SDS011;2539;52.568;13.364;2022-09-09T06:23:26;7.23;;;5.30;;
5040;SDS011;2539;52.568;13.364;2022-09-09T06:26:28;6.93;;;5.60;;
5040;SDS011;2539;52.568;13.364;2022-09-09T06:28:48;7.97;;;5.83;;
5040;SDS011;2539;52.568;13.364;2022-09-09T06:31:17;9.93;;;5.87;;
5040;SDS011;2539;52.568;13.364;2022-09-09T06:33:48;11.90;;;5.47;;
5040;SDS011;2539;52.568;13.364;2022-09-09T06:36:18;7.30;;;5.80;;
5040;SDS011;2539;52.568;13.364;2022-09-09T06:38:46;6.97;;;5.80;;
5040;SDS011;2539;52.568;13.364;2022-09-09T06:41:14;10.23;;;6.27;;
5040;SDS011;2539;52.568;13.364;2022-09-09T06:43:42;6.87;;;6.17;;
5040;SDS011;2539;52.568;13.364;2022-09-09T06:46:09;12.87;;;6.33;;
5040;SDS011;2539;52.568;13.364;2022-09-09T06:48:38;8.00;;;5.60;;
5040;SDS011;2539;52.568;13.364;2022-09-09T06:51:12;7.77;;;5.80;;
5040;SDS011;2539;52.568;13.364;2022-09-09T06:53:52;8.40;;;5.37;;
5040;SDS011;2539;52.568;13.364;2022-09-09T06:59:07;7.40;;;5.47;;
5040;SDS011;2539;52.568;13.364;2022-09-09T07:01:36;6.47;;;5.47;;
5040;SDS011;2539;52.568;13.364;2022-09-09T07:04:05;10.30;;;6.60;;
5040;SDS011;2539;52.568;13.364;2022-09-09T07:06:35;8.33;;;5.87;;
5040;SDS011;2539;52.568;13.364;2022-09-09T07:09:04;7.43;;;5.33;;
5040;SDS011;2539;52.568;13.364;2022-09-09T07:11:33;5.90;;;4.40;;
5040;SDS011;2539;52.568;13.364;2022-09-09T07:14:03;7.40;;;4.40;;
5040;SDS011;2539;52.568;13.364;2022-09-09T07:16:29;6.30;;;3.60;;
5040;SDS011;2539;52.568;13.364;2022-09-09T07:18:57;7.50;;;4.03;;
5040;SDS011;2539;52.568;13.364;2022-09-09T07:21:24;9.00;;;3.90;;
5040;SDS011;2539;52.568;13.364;2022-09-09T07:23:52;6.43;;;3.80;;
5040;SDS011;2539;52.568;13.364;2022-09-09T07:26:20;7.37;;;3.70;;
5040;SDS011;2539;52.568;13.364;2022-09-09T07:28:48;5.63;;;3.03;;
5040;SDS011;2539;52.568;13.364;2022-09-09T07:31:15;8.33;;;2.70;;
5040;SDS011;2539;52.568;13.364;2022-09-09T07:33:52;9.00;;;3.33;;
5040;SDS011;2539;52.568;13.364;2022-09-09T07:36:20;7.07;;;2.90;;
5040;SDS011;2539;52.568;13.364;2022-09-09T07:38:52;7.87;;;3.40;;
5040;SDS011;2539;52.568;13.364;2022-09-09T07:41:25;5.40;;;3.07;;
5040;SDS011;2539;52.568;13.364;2022-09-09T07:43:53;4.70;;;2.60;;
5040;SDS011;2539;52.568;13.364;2022-09-09T07:46:20;6.60;;;3.10;;
5040;SDS011;2539;52.568;13.364;2022-09-09T07:48:49;8.77;;;3.70;;
5040;SDS011;2539;52.568;13.364;2022-09-09T07:51:18;4.60;;;2.50;;
5040;SDS011;2539;52.568;13.364;2022-09-09T07:53:48;5.27;;;2.77;;
5040;SDS011;2539;52.568;13.364;2022-09-09T07:56:18;5.87;;;3.10;;
5040;SDS011;2539;52.568;13.364;2022-09-09T07:58:45;7.20;;;3.67;;
5040;SDS011;2539;52.568;13.364;2022-09-09T08:01:13;4.77;;;3.23;;
5040;SDS011;2539;52.568;13.364;2022-09-09T08:03:44;5.13;;;2.37;;
5040;SDS011;2539;52.568;13.364;2022-09-09T08:06:12;4.10;;;2.70;;
5040;SDS011;2539;52.568;13.364;2022-09-09T08:08:39;4.37;;;3.33;;
5040;SDS011;2539;52.568;13.364;2022-09-09T08:11:10;4.30;;;2.30;;
5040;SDS011;2539;52.568;13.364;2022-09-09T08:13:38;3.97;;;2.20;;
5040;SDS011;2539;52.568;13.364;2022-09-09T08:16:15;10.00;;;2.20;;
5040;SDS011;2539;52.568;13.364;2022-09-09T08:18:43;5.43;;;3.20;;
5040;SDS011;2539;52.568;13.364;2022-09-09T08:21:11;5.93;;;2.53;;
5040;SDS011;2539;52.568;13.364;2022-09-09T08:23:40;4.17;;;2.57;;
5040;SDS011;2539;52.568;13.364;2022-09-09T08:28:39;3.70;;;2.30;;
5040;SDS011;2539;52.568;13.364;2022-09-09T08:31:07;3.13;;;1.80;;
5040;SDS011;2539;52.568;13.364;2022-09-09T08:33:36;4.77;;;2.40;;
5040;SDS011;2539;52.568;13.364;2022-09-09T08:36:04;4.13;;;2.43;;
5040;SDS011;2539;52.568;13.364;2022-09-09T08:38:32;6.10;;;2.70;;
5040;SDS011;2539;52.568;13.364;2022-09-09T08:41:04;7.60;;;2.40;;
5040;SDS011;2539;52.568;13.364;2022-09-09T08:43:45;5.30;;;2.70;;
5040;SDS011;2539;52.568;13.364;2022-09-09T08:48:57;5.77;;;2.10;;
5040;SDS011;2539;52.568;13.364;2022-09-09T08:51:54;3.43;;;2.40;;
5040;SDS011;2539;52.568;13.364;2022-09-09T08:54:23;5.10;;;2.70;;
5040;SDS011;2539;52.568;13.364;2022-09-09T08:56:52;4.43;;;2.40;;
5040;SDS011;2539;52.568;13.364;2022-09-09T08:59:18;6.77;;;2.70;;
5040;SDS011;2539;52.568;13.364;2022-09-09T09:04:38;4.40;;;2.70;;
5040;SDS011;2539;52.568;13.364;2022-09-09T09:07:24;3.30;;;2.60;;
5040;SDS011;2539;52.568;13.364;2022-09-09T09:10:24;5.27;;;2.37;;
5040;SDS011;2539;52.568;13.364;2022-09-09T09:12:56;2.90;;;2.00;;
5040;SDS011;2539;52.568;13.364;2022-09-09T09:15:24;6.17;;;3.40;;
5040;SDS011;2539;52.568;13.364;2022-09-09T09:17:52;4.03;;;2.60;;
5040;SDS011;2539;52.568;13.364;2022-09-09T09:20:20;7.63;;;3.30;;
5040;SDS011;2539;52.568;13.364;2022-09-09T09:22:55;8.57;;;2.47;;
5040;SDS011;2539;52.568;13.364;2022-09-09T09:25:28;6.27;;;2.63;;
5040;SDS011;2539;52.568;13.364;2022-09-09T09:28:23;11.90;;;5.67;;
5040;SDS011;2539;52.568;13.364;2022-09-09T09:30:55;4.63;;;2.73;;
5040;SDS011;2539;52.568;13.364;2022-09-09T09:33:43;9.80;;;2.50;;
5040;SDS011;2539;52.568;13.364;2022-09-09T09:36:13;7.47;;;2.67;;
5040;SDS011;2539;52.568;13.364;2022-09-09T09:38:51;4.90;;;2.10;;
5040;SDS011;2539;52.568;13.364;2022-09-09T09:41:29;7.63;;;2.47;;
5040;SDS011;2539;52.568;13.364;2022-09-09T09:44:02;8.20;;;2.23;;
5040;SDS011;2539;52.568;13.364;2022-09-09T09:46:30;3.77;;;2.37;;
5040;SDS011;2539;52.568;13.364;2022-09-09T09:49:01;4.30;;;2.40;;
5040;SDS011;2539;52.568;13.364;2022-09-09T09:51:31;6.70;;;1.90;;
5040;SDS011;2539;52.568;13.364;2022-09-09T09:56:41;7.40;;;2.03;;
5040;SDS011;2539;52.568;13.364;2022-09-09T09:59:22;4.30;;;1.93;;
5040;SDS011;2539;52.568;13.364;2022-09-09T10:02:10;5.03;;;2.30;;
5040;SDS011;2539;52.568;13.364;2022-09-09T10:05:36;4.00;;;2.10;;
5040;SDS011;2539;52.568;13.364;2022-09-09T10:07:41;9.77;;;2.27;;
5040;SDS011;2539;52.568;13.364;2022-09-09T10:10:13;9.47;;;1.87;;
5040;SDS011;2539;52.568;13.364;2022-09-09T10:12:58;3.90;;;1.97;;
5040;SDS011;2539;52.568;13.364;2022-09-09T10:18:21;4.53;;;1.87;;
5040;SDS011;2539;52.568;13.364;2022-09-09T10:26:52;4.67;;;2.10;;
5040;SDS011;2539;52.568;13.364;2022-09-09T10:29:29;4.23;;;1.77;;
5040;SDS011;2539;52.568;13.364;2022-09-09T10:40:26;5.93;;;1.70;;
5040;SDS011;2539;52.568;13.364;2022-09-09T10:43:01;4.27;;;2.43;;
5040;SDS011;2539;52.568;13.364;2022-09-09T10:51:15;2.93;;;1.90;;
5040;SDS011;2539;52.568;13.364;2022-09-09T10:56:31;11.47;;;2.10;;
5040;SDS011;2539;52.568;13.364;2022-09-09T10:59:13;5.10;;;1.93;;
5040;SDS011;2539;52.568;13.364;2022-09-09T11:04:25;3.80;;;1.93;;
5040;SDS011;2539;52.568;13.364;2022-09-09T11:06:58;8.00;;;2.30;;
5040;SDS011;2539;52.568;13.364;2022-09-09T11:09:31;4.10;;;1.70;;
5040;SDS011;2539;52.568;13.364;2022-09-09T11:12:02;4.00;;;1.90;;
5040;SDS011;2539;52.568;13.364;2022-09-09T11:14:36;5.20;;;2.00;;
5040;SDS011;2539;52.568;13.364;2022-09-09T11:17:15;2.30;;;1.30;;
5040;SDS011;2539;52.568;13.364;2022-09-09T11:19:52;3.30;;;1.80;;
5040;SDS011;2539;52.568;13.364;2022-09-09T11:22:32;2.40;;;1.43;;
5040;SDS011;2539;52.568;13.364;2022-09-09T11:25:08;3.33;;;1.57;;
5040;SDS011;2539;52.568;13.364;2022-09-09T11:30:39;3.73;;;1.53;;
5040;SDS011;2539;52.568;13.364;2022-09-09T11:36:31;4.73;;;1.77;;
5040;SDS011;2539;52.568;13.364;2022-09-09T11:39:17;5.97;;;1.77;;
5040;SDS011;2539;52.568;13.364;2022-09-09T11:42:06;5.77;;;1.70;;
5040;SDS011;2539;52.568;13.364;2022-09-09T11:44:38;6.33;;;2.10;;
5040;SDS011;2539;52.568;13.364;2022-09-09T11:47:26;4.30;;;2.10;;
5040;SDS011;2539;52.568;13.364;2022-09-09T11:50:07;3.10;;;1.60;;
5040;SDS011;2539;52.568;13.364;2022-09-09T11:52:40;3.03;;;2.43;;
5040;SDS011;2539;52.568;13.364;2022-09-09T11:55:20;3.13;;;1.90;;
5040;SDS011;2539;52.568;13.364;2022-09-09T11:57:56;4.27;;;1.70;;
5040;SDS011;2539;52.568;13.364;2022-09-09T12:00:35;3.57;;;1.80;;
5040;SDS011;2539;52.568;13.364;2022-09-09T12:03:04;7.00;;;1.80;;
5040;SDS011;2539;52.568;13.364;2022-09-09T12:05:36;7.23;;;2.20;;
5040;SDS011;2539;52.568;13.364;2022-09-09T12:08:09;2.73;;;1.33;;
5040;SDS011;2539;52.568;13.364;2022-09-09T12:10:40;3.00;;;1.47;;
5040;SDS011;2539;52.568;13.364;2022-09-09T12:13:08;4.43;;;1.47;;
5040;SDS011;2539;52.568;13.364;2022-09-09T12:15:48;3.07;;;1.30;;
5040;SDS011;2539;52.568;13.364;2022-09-09T12:18:26;6.90;;;1.57;;
5040;SDS011;2539;52.568;13.364;2022-09-09T12:21:05;3.37;;;1.30;;
5040;SDS011;2539;52.568;13.364;2022-09-09T12:23:40;5.80;;;1.63;;
5040;SDS011;2539;52.568;13.364;2022-09-09T12:26:32;2.57;;;1.40;;
5040;SDS011;2539;52.568;13.364;2022-09-09T12:29:12;3.20;;;1.30;;
5040;SDS011;2539;52.568;13.364;2022-09-09T12:32:10;3.00;;;1.40;;
5040;SDS011;2539;52.568;13.364;2022-09-09T12:34:50;3.60;;;1.50;;
5040;SDS011;2539;52.568;13.364;2022-09-09T12:40:21;3.83;;;1.60;;
5040;SDS011;2539;52.568;13.364;2022-09-09T12:42:52;3.83;;;1.70;;
5040;SDS011;2539;52.568;13.364;2022-09-09T12:45:21;2.90;;;1.30;;
5040;SDS011;2539;52.568;13.364;2022-09-09T12:50:29;3.07;;;1.60;;
5040;SDS011;2539;52.568;13.364;2022-09-09T12:53:02;2.50;;;1.70;;
5040;SDS011;2539;52.568;13.364;2022-09-09T12:55:35;4.27;;;1.97;;
5040;SDS011;2539;52.568;13.364;2022-09-09T12:58:04;3.70;;;1.67;;
5040;SDS011;2539;52.568;13.364;2022-09-09T13:00:32;2.83;;;1.33;;
5040;SDS011;2539;52.568;13.364;2022-09-09T13:03:00;3.40;;;1.60;;
5040;SDS011;2539;52.568;13.364;2022-09-09T13:05:41;6.27;;;1.40;;
5040;SDS011;2539;52.568;13.364;2022-09-09T13:08:08;4.00;;;3.10;;
5040;SDS011;2539;52.568;13.364;2022-09-09T13:10:43;4.83;;;1.60;;
5040;SDS011;2539;52.568;13.364;2022-09-09T13:13:23;3.30;;;1.43;;
5040;SDS011;2539;52.568;13.364;2022-09-09T13:15:54;3.63;;;1.60;;
5040;SDS011;2539;52.568;13.364;2022-09-09T13:18:29;3.73;;;1.20;;
5040;SDS011;2539;52.568;13.364;2022-09-09T13:21:06;5.37;;;2.20;;
5040;SDS011;2539;52.568;13.364;2022-09-09T13:23:33;3.30;;;1.77;;
5040;SDS011;2539;52.568;13.364;2022-09-09T13:26:04;3.17;;;1.43;;
5040;SDS011;2539;52.568;13.364;2022-09-09T13:28:44;4.97;;;1.73;;
5040;SDS011;2539;52.568;13.364;2022-09-09T13:31:22;4.40;;;2.07;;
5040;SDS011;2539;52.568;13.364;2022-09-09T13:33:53;4.23;;;2.00;;
5040;SDS011;2539;52.568;13.364;2022-09-09T13:36:29;5.57;;;1.63;;
5040;SDS011;2539;52.568;13.364;2022-09-09T13:38:58;4.00;;;1.77;;
5040;SDS011;2539;52.568;13.364;2022-09-09T13:41:28;3.70;;;1.57;;
5040;SDS011;2539;52.568;13.364;2022-09-09T13:44:00;6.67;;;2.17;;
5040;SDS011;2539;52.568;13.364;2022-09-09T13:46:33;3.90;;;1.73;;
5040;SDS011;2539;52.568;13.364;2022-09-09T13:49:18;3.47;;;1.93;;
5040;SDS011;2539;52.568;13.364;2022-09-09T13:51:47;4.87;;;2.10;;
5040;SDS011;2539;52.568;13.364;2022-09-09T13:54:16;3.47;;;2.43;;
5040;SDS011;2539;52.568;13.364;2022-09-09T13:56:44;5.27;;;2.50;;
5040;SDS011;2539;52.568;13.364;2022-09-09T13:59:11;3.43;;;1.67;;
5040;SDS011;2539;52.568;13.364;2022-09-09T14:01:42;3.40;;;1.50;;
5040;SDS011;2539;52.568;13.364;2022-09-09T14:04:09;4.73;;;1.97;;
5040;SDS011;2539;52.568;13.364;2022-09-09T14:06:38;1.97;;;1.27;;
5040;SDS011;2539;52.568;13.364;2022-09-09T14:09:06;3.17;;;1.48;;
5040;SDS011;2539;52.568;13.364;2022-09-09T14:11:35;3.30;;;1.20;;
5040;SDS011;2539;52.568;13.364;2022-09-09T14:14:01;2.67;;;1.58;;
5040;SDS011;2539;52.568;13.364;2022-09-09T14:16:27;3.50;;;1.50;;
5040;SDS011;2539;52.568;13.364;2022-09-09T14:18:54;6.55;;;1.40;;
5040;SDS011;2539;52.568;13.364;2022-09-09T14:21:21;4.53;;;2.13;;
5040;SDS011;2539;52.568;13.364;2022-09-09T14:23:47;4.30;;;1.80;;
5040;SDS011;2539;52.568;13.364;2022-09-09T14:26:13;3.80;;;1.50;;
5040;SDS011;2539;52.568;13.364;2022-09-09T14:28:40;5.53;;;1.88;;
5040;SDS011;2539;52.568;13.364;2022-09-09T14:31:06;3.15;;;1.42;;
5040;SDS011;2539;52.568;13.364;2022-09-09T14:33:33;7.70;;;1.50;;
5040;SDS011;2539;52.568;13.364;2022-09-09T14:36:01;4.80;;;1.50;;
5040;SDS011;2539;52.568;13.364;2022-09-09T14:38:29;5.50;;;1.50;;
5040;SDS011;2539;52.568;13.364;2022-09-09T14:41:09;3.80;;;1.53;;
5040;SDS011;2539;52.568;13.364;2022-09-09T14:43:40;4.50;;;1.77;;
5040;SDS011;2539;52.568;13.364;2022-09-09T14:46:07;5.90;;;1.80;;
5040;SDS011;2539;52.568;13.364;2022-09-09T14:48:34;6.88;;;2.25;;
5040;SDS011;2539;52.568;13.364;2022-09-09T14:51:08;3.53;;;1.50;;
5040;SDS011;2539;52.568;13.364;2022-09-09T14:53:41;5.18;;;2.20;;
5040;SDS011;2539;52.568;13.364;2022-09-09T14:56:18;2.85;;;1.50;;
5040;SDS011;2539;52.568;13.364;2022-09-09T14:58:47;5.60;;;1.87;;
5040;SDS011;2539;52.568;13.364;2022-09-09T15:01:16;3.50;;;1.80;;
5040;SDS011;2539;52.568;13.364;2022-09-09T15:03:48;5.50;;;2.00;;
5040;SDS011;2539;52.568;13.364;2022-09-09T15:06:35;5.40;;;1.87;;
5040;SDS011;2539;52.568;13.364;2022-09-09T15:09:05;6.40;;;1.80;;
5040;SDS011;2539;52.568;13.364;2022-09-09T15:11:33;5.70;;;2.00;;
5040;SDS011;2539;52.568;13.364;2022-09-09T15:14:03;6.50;;;3.40;;
5040;SDS011;2539;52.568;13.364;2022-09-09T15:16:29;5.07;;;2.43;;
5040;SDS011;2539;52.568;13.364;2022-09-09T15:18:58;6.53;;;2.43;;
5040;SDS011;2539;52.568;13.364;2022-09-09T15:21:26;7.40;;;2.33;;
5040;SDS011;2539;52.568;13.364;2022-09-09T15:23:55;3.40;;;1.80;;
5040;SDS011;2539;52.568;13.364;2022-09-09T15:26:22;3.63;;;1.50;;
5040;SDS011;2539;52.568;13.364;2022-09-09T15:28:49;9.00;;;2.97;;
5040;SDS011;2539;52.568;13.364;2022-09-09T15:31:17;6.10;;;1.65;;
5040;SDS011;2539;52.568;13.364;2022-09-09T15:33:52;4.07;;;2.20;;
5040;SDS011;2539;52.568;13.364;2022-09-09T15:36:27;4.63;;;2.38;;
5040;SDS011;2539;52.568;13.364;2022-09-09T15:38:55;7.38;;;1.77;;
5040;SDS011;2539;52.568;13.364;2022-09-09T15:41:22;5.30;;;1.67;;
5040;SDS011;2539;52.568;13.364;2022-09-09T15:43:53;4.20;;;2.03;;
5040;SDS011;2539;52.568;13.364;2022-09-09T15:46:30;4.30;;;1.80;;
5040;SDS011;2539;52.568;13.364;2022-09-09T15:51:37;4.10;;;2.20;;
5040;SDS011;2539;52.568;13.364;2022-09-09T15:54:05;5.10;;;3.00;;
5040;SDS011;2539;52.568;13.364;2022-09-09T15:56:31;4.00;;;2.30;;
5040;SDS011;2539;52.568;13.364;2022-09-09T15:58:58;3.83;;;1.83;;
5040;SDS011;2539;52.568;13.364;2022-09-09T16:01:29;7.00;;;2.13;;
5040;SDS011;2539;52.568;13.364;2022-09-09T16:03:57;7.50;;;3.00;;
5040;SDS011;2539;52.568;13.364;2022-09-09T16:06:24;6.13;;;2.23;;
5040;SDS011;2539;52.568;13.364;2022-09-09T16:08:53;3.70;;;1.87;;
5040;SDS011;2539;52.568;13.364;2022-09-09T16:11:22;4.57;;;2.30;;
5040;SDS011;2539;52.568;13.364;2022-09-09T16:13:57;3.63;;;2.40;;
5040;SDS011;2539;52.568;13.364;2022-09-09T16:16:25;7.97;;;2.57;;
5040;SDS011;2539;52.568;13.364;2022-09-09T16:18:55;8.03;;;3.00;;
5040;SDS011;2539;52.568;13.364;2022-09-09T16:23:57;3.43;;;2.30;;
5040;SDS011;2539;52.568;13.364;2022-09-09T16:26:28;6.20;;;2.50;;
5040;SDS011;2539;52.568;13.364;2022-09-09T16:28:55;6.70;;;3.17;;
5040;SDS011;2539;52.568;13.364;2022-09-09T16:31:23;6.57;;;3.10;;
5040;SDS011;2539;52.568;13.364;2022-09-09T16:33:55;6.77;;;2.90;;
5040;SDS011;2539;52.568;13.364;2022-09-09T16:36:22;5.93;;;3.23;;
5040;SDS011;2539;52.568;13.364;2022-09-09T16:38:53;5.47;;;3.20;;
5040;SDS011;2539;52.568;13.364;2022-09-09T16:41:23;4.77;;;2.50;;
5040;SDS011;2539;52.568;13.364;2022-09-09T16:43:54;5.27;;;3.30;;
5040;SDS011;2539;52.568;13.364;2022-09-09T16:46:25;6.10;;;4.10;;
5040;SDS011;2539;52.568;13.364;2022-09-09T16:48:53;6.40;;;4.20;;
5040;SDS011;2539;52.568;13.364;2022-09-09T16:51:21;5.10;;;3.10;;
5040;SDS011;2539;52.568;13.364;2022-09-09T16:53:49;7.27;;;3.80;;
5040;SDS011;2539;52.568;13.364;2022-09-09T16:56:21;6.10;;;3.70;;
5040;SDS011;2539;52.568;13.364;2022-09-09T16:58:51;5.20;;;3.70;;
5040;SDS011;2539;52.568;13.364;2022-09-09T17:01:28;5.57;;;3.67;;
5040;SDS011;2539;52.568;13.364;2022-09-09T17:03:58;5.00;;;3.70;;